sensor_id;sensor_type;location;lat;lon;timestamp;pressure;altitude;pressure_sealevel;temperature;humidity
48796;BME280;34607;48.520;-1.330;2023-04-23T07:56:51;98527.28;;;10.16;100.00
48796;BME280;34607;48.520;-1.330;2023-04-23T07:59:18;98543.88;;;9.96;100.00
48796;BME280;34607;48.520;-1.330;2023-04-23T08:01:45;98553.44;;;9.86;100.00
48796;BME280;34607;48.520;-1.330;2023-04-23T08:04:12;98555.16;;;9.90;100.00
48796;BME280;34607;48.520;-1.330;2023-04-23T08:06:39;98558.50;;;9.97;100.00
48796;BME280;34607;48.520;-1.330;2023-04-23T08:09:06;98555.88;;;10.03;100.00
48796;BME280;34607;48.520;-1.330;2023-04-23T08:11:34;98563.75;;;9.91;100.00
48796;BME280;34607;48.520;-1.330;2023-04-23T08:14:03;98574.00;;;9.99;100.00
48796;BME280;34607;48.520;-1.330;2023-04-23T08:16:30;98563.72;;;9.96;100.00
48796;BME280;34607;48.520;-1.330;2023-04-23T08:18:57;98568.84;;;9.99;100.00
48796;BME280;34607;48.520;-1.330;2023-04-23T08:21:24;98585.09;;;10.13;100.00
48796;BME280;34607;48.520;-1.330;2023-04-23T08:23:52;98585.97;;;10.07;100.00
48796;BME280;34607;48.520;-1.330;2023-04-23T08:26:19;98593.78;;;10.06;100.00
48796;BME280;34607;48.520;-1.330;2023-04-23T08:28:46;98594.66;;;10.02;100.00
48796;BME280;34607;48.520;-1.330;2023-04-23T08:31:14;98594.66;;;10.05;100.00
48796;BME280;34607;48.520;-1.330;2023-04-23T08:33:42;98594.69;;;9.97;100.00
48796;BME280;34607;48.520;-1.330;2023-04-23T08:36:09;98602.44;;;9.99;100.00
48796;BME280;34607;48.520;-1.330;2023-04-23T08:38:36;98613.66;;;10.01;100.00
48796;BME280;34607;48.520;-1.330;2023-04-23T08:41:05;98610.97;;;10.11;100.00
48796;BME280;34607;48.520;-1.330;2023-04-23T08:43:39;98622.16;;;10.10;100.00
48796;BME280;34607;48.520;-1.330;2023-04-23T08:46:11;98618.56;;;10.25;100.00
48796;BME280;34607;48.520;-1.330;2023-04-23T08:48:40;98614.06;;;10.46;100.00
48796;BME280;34607;48.520;-1.330;2023-04-23T08:51:12;98622.56;;;10.57;100.00
48796;BME280;34607;48.520;-1.330;2023-04-23T08:53:44;98614.06;;;10.47;100.00
48796;BME280;34607;48.520;-1.330;2023-04-23T08:56:12;98615.91;;;10.33;100.00
48796;BME280;34607;48.520;-1.330;2023-04-23T08:58:40;98680.41;;;10.53;100.00
48796;BME280;34607;48.520;-1.330;2023-04-23T09:01:07;98681.38;;;10.41;100.00
48796;BME280;34607;48.520;-1.330;2023-04-23T09:03:35;98665.06;;;10.35;100.00
48796;BME280;34607;48.520;-1.330;2023-04-23T09:06:05;98688.38;;;10.30;100.00
48796;BME280;34607;48.520;-1.330;2023-04-23T09:08:32;98672.88;;;10.32;100.00
48796;BME280;34607;48.520;-1.330;2023-04-23T09:11:01;98696.03;;;10.44;100.00
48796;BME280;34607;48.520;-1.330;2023-04-23T09:13:29;98708.88;;;10.55;100.00
48796;BME280;34607;48.520;-1.330;2023-04-23T09:15:56;98713.22;;;10.51;100.00
48796;BME280;34607;48.520;-1.330;2023-04-23T09:18:23;98717.47;;;10.58;100.00
48796;BME280;34607;48.520;-1.330;2023-04-23T09:20:51;98708.72;;;10.68;100.00
48796;BME280;34607;48.520;-1.330;2023-04-23T09:23:22;98725.88;;;10.79;100.00
48796;BME280;34607;48.520;-1.330;2023-04-23T09:25:49;98737.31;;;10.58;100.00
48796;BME280;34607;48.520;-1.330;2023-04-23T09:28:17;98739.88;;;10.59;100.00
48796;BME280;34607;48.520;-1.330;2023-04-23T09:30:44;98750.25;;;10.59;100.00
48796;BME280;34607;48.520;-1.330;2023-04-23T09:33:12;98752.53;;;10.90;100.00
48796;BME280;34607;48.520;-1.330;2023-04-23T09:35:39;98753.31;;;10.97;100.00
48796;BME280;34607;48.520;-1.330;2023-04-23T09:38:07;98760.84;;;11.15;100.00
48796;BME280;34607;48.520;-1.330;2023-04-23T09:40:36;98762.53;;;11.21;100.00
48796;BME280;34607;48.520;-1.330;2023-04-23T09:43:04;98772.63;;;11.41;100.00
48796;BME280;34607;48.520;-1.330;2023-04-23T09:45:32;98775.00;;;11.58;100.00
48796;BME280;34607;48.520;-1.330;2023-04-23T09:47:59;98779.91;;;11.81;100.00
48796;BME280;34607;48.520;-1.330;2023-04-23T09:50:34;98770.16;;;11.98;100.00
48796;BME280;34607;48.520;-1.330;2023-04-23T09:53:03;98791.47;;;12.19;100.00
48796;BME280;34607;48.520;-1.330;2023-04-23T09:55:31;98775.16;;;12.64;100.00
48796;BME280;34607;48.520;-1.330;2023-04-23T09:58:02;98793.06;;;12.79;100.00
48796;BME280;34607;48.520;-1.330;2023-04-23T10:00:33;98787.38;;;13.07;100.00
48796;BME280;34607;48.520;-1.330;2023-04-23T10:03:01;98795.44;;;13.38;100.00
48796;BME280;34607;48.520;-1.330;2023-04-23T10:05:28;98779.16;;;13.71;100.00
48796;BME280;34607;48.520;-1.330;2023-04-23T10:07:55;98789.97;;;14.30;97.41
48796;BME280;34607;48.520;-1.330;2023-04-23T10:10:23;98788.63;;;14.14;95.74
48796;BME280;34607;48.520;-1.330;2023-04-23T10:12:51;98798.41;;;14.40;95.53
48796;BME280;34607;48.520;-1.330;2023-04-23T10:15:22;98796.59;;;14.79;94.59
48796;BME280;34607;48.520;-1.330;2023-04-23T10:17:49;98792.78;;;14.93;93.54
48796;BME280;34607;48.520;-1.330;2023-04-23T10:20:19;98802.47;;;14.88;91.83
48796;BME280;34607;48.520;-1.330;2023-04-23T10:22:47;98799.72;;;14.56;90.67
48796;BME280;34607;48.520;-1.330;2023-04-23T10:25:15;98776.47;;;14.50;92.25
48796;BME280;34607;48.520;-1.330;2023-04-23T10:27:43;98817.09;;;14.59;91.50
48796;BME280;34607;48.520;-1.330;2023-04-23T10:30:11;98802.06;;;14.33;91.58
48796;BME280;34607;48.520;-1.330;2023-04-23T10:32:40;98818.44;;;14.38;92.20
48796;BME280;34607;48.520;-1.330;2023-04-23T10:35:08;98815.19;;;14.28;92.14
48796;BME280;34607;48.520;-1.330;2023-04-23T10:37:36;98795.63;;;14.10;92.21
48796;BME280;34607;48.520;-1.330;2023-04-23T10:40:06;98815.88;;;13.97;91.99
48796;BME280;34607;48.520;-1.330;2023-04-23T10:42:37;98821.72;;;13.68;92.58
48796;BME280;34607;48.520;-1.330;2023-04-23T10:45:12;98826.88;;;13.71;93.41
48796;BME280;34607;48.520;-1.330;2023-04-23T10:47:43;98795.25;;;13.49;93.38
48796;BME280;34607;48.520;-1.330;2023-04-23T10:50:18;98826.09;;;13.67;93.84
48796;BME280;34607;48.520;-1.330;2023-04-23T10:52:45;98826.72;;;13.77;94.27
48796;BME280;34607;48.520;-1.330;2023-04-23T10:55:16;98824.56;;;13.96;93.99
48796;BME280;34607;48.520;-1.330;2023-04-23T10:57:57;98811.78;;;13.87;93.34
48796;BME280;34607;48.520;-1.330;2023-04-23T11:00:25;98823.31;;;13.75;94.42
48796;BME280;34607;48.520;-1.330;2023-04-23T11:02:54;98818.19;;;13.71;94.71
48796;BME280;34607;48.520;-1.330;2023-04-23T11:05:21;98819.91;;;13.72;94.53
48796;BME280;34607;48.520;-1.330;2023-04-23T11:08:04;98828.56;;;13.72;94.41
48796;BME280;34607;48.520;-1.330;2023-04-23T11:10:31;98831.94;;;13.77;94.07
48796;BME280;34607;48.520;-1.330;2023-04-23T11:13:21;98822.44;;;13.75;92.87
48796;BME280;34607;48.520;-1.330;2023-04-23T11:18:53;98835.28;;;13.82;91.77
48796;BME280;34607;48.520;-1.330;2023-04-23T11:21:20;98840.75;;;13.70;93.55
48796;BME280;34607;48.520;-1.330;2023-04-23T11:23:47;98849.81;;;13.52;95.02
48796;BME280;34607;48.520;-1.330;2023-04-23T11:26:16;98853.72;;;13.26;97.76
48796;BME280;34607;48.520;-1.330;2023-04-23T11:28:43;98855.13;;;12.96;100.00
48796;BME280;34607;48.520;-1.330;2023-04-23T11:31:11;98865.84;;;12.76;100.00
48796;BME280;34607;48.520;-1.330;2023-04-23T11:33:38;98872.91;;;12.68;100.00
48796;BME280;34607;48.520;-1.330;2023-04-23T11:36:07;98888.88;;;12.43;100.00
48796;BME280;34607;48.520;-1.330;2023-04-23T11:38:34;98881.16;;;12.37;100.00
48796;BME280;34607;48.520;-1.330;2023-04-23T11:41:01;98873.25;;;12.46;100.00
48796;BME280;34607;48.520;-1.330;2023-04-23T11:43:29;98884.16;;;12.68;100.00
48796;BME280;34607;48.520;-1.330;2023-04-23T11:45:56;98891.97;;;12.67;100.00
48796;BME280;34607;48.520;-1.330;2023-04-23T11:48:26;98886.34;;;12.39;100.00
48796;BME280;34607;48.520;-1.330;2023-04-23T11:50:53;98887.22;;;12.39;100.00
48796;BME280;34607;48.520;-1.330;2023-04-23T11:53:22;98901.22;;;12.29;100.00
48796;BME280;34607;48.520;-1.330;2023-04-23T11:55:49;98896.88;;;12.28;100.00
48796;BME280;34607;48.520;-1.330;2023-04-23T11:58:19;98897.06;;;12.73;100.00
48796;BME280;34607;48.520;-1.330;2023-04-23T12:00:46;98902.59;;;13.06;100.00
48796;BME280;34607;48.520;-1.330;2023-04-23T12:03:14;98910.09;;;13.23;100.00
48796;BME280;34607;48.520;-1.330;2023-04-23T12:05:43;98909.75;;;13.43;100.00
48796;BME280;34607;48.520;-1.330;2023-04-23T12:08:13;98904.16;;;13.64;100.00
48796;BME280;34607;48.520;-1.330;2023-04-23T12:10:43;98898.31;;;13.53;100.00
48796;BME280;34607;48.520;-1.330;2023-04-23T12:13:16;98921.13;;;13.39;100.00
48796;BME280;34607;48.520;-1.330;2023-04-23T12:15:47;98928.44;;;13.14;100.00
48796;BME280;34607;48.520;-1.330;2023-04-23T12:18:14;98925.34;;;13.44;100.00
48796;BME280;34607;48.520;-1.330;2023-04-23T12:20:42;98937.03;;;13.68;100.00
48796;BME280;34607;48.520;-1.330;2023-04-23T12:23:09;98933.91;;;13.49;100.00
48796;BME280;34607;48.520;-1.330;2023-04-23T12:25:39;98936.59;;;13.45;100.00
48796;BME280;34607;48.520;-1.330;2023-04-23T12:28:07;98942.69;;;13.44;100.00
48796;BME280;34607;48.520;-1.330;2023-04-23T12:30:42;98945.13;;;13.53;100.00
48796;BME280;34607;48.520;-1.330;2023-04-23T12:33:10;98948.78;;;13.41;100.00
48796;BME280;34607;48.520;-1.330;2023-04-23T12:35:38;98944.13;;;13.09;100.00
48796;BME280;34607;48.520;-1.330;2023-04-23T12:38:05;98954.66;;;13.01;100.00
48796;BME280;34607;48.520;-1.330;2023-04-23T12:40:32;98956.41;;;13.01;100.00
48796;BME280;34607;48.520;-1.330;2023-04-23T12:42:59;98968.28;;;13.14;100.00
48796;BME280;34607;48.520;-1.330;2023-04-23T12:45:35;98966.13;;;13.42;100.00
48796;BME280;34607;48.520;-1.330;2023-04-23T12:48:03;98968.53;;;13.53;100.00
48796;BME280;34607;48.520;-1.330;2023-04-23T12:50:30;98972.44;;;13.26;100.00
48796;BME280;34607;48.520;-1.330;2023-04-23T12:52:57;98973.06;;;12.86;100.00
48796;BME280;34607;48.520;-1.330;2023-04-23T12:55:24;98978.69;;;12.57;100.00
48796;BME280;34607;48.520;-1.330;2023-04-23T12:57:51;98978.13;;;12.34;100.00
48796;BME280;34607;48.520;-1.330;2023-04-23T13:00:18;98972.09;;;12.32;100.00
48796;BME280;34607;48.520;-1.330;2023-04-23T13:02:46;98978.13;;;12.33;100.00
48796;BME280;34607;48.520;-1.330;2023-04-23T13:05:14;98979.53;;;12.57;100.00
48796;BME280;34607;48.520;-1.330;2023-04-23T13:07:41;98982.16;;;13.15;100.00
48796;BME280;34607;48.520;-1.330;2023-04-23T13:10:09;98979.78;;;13.54;98.74
48796;BME280;34607;48.520;-1.330;2023-04-23T13:12:36;98988.63;;;13.43;97.63
48796;BME280;34607;48.520;-1.330;2023-04-23T13:15:03;98989.78;;;13.25;95.48
48796;BME280;34607;48.520;-1.330;2023-04-23T13:17:31;98981.94;;;13.78;96.35
48796;BME280;34607;48.520;-1.330;2023-04-23T13:19:59;98986.66;;;13.58;91.67
48796;BME280;34607;48.520;-1.330;2023-04-23T13:22:26;98988.78;;;13.34;92.50
48796;BME280;34607;48.520;-1.330;2023-04-23T13:24:54;98992.63;;;13.10;93.96
48796;BME280;34607;48.520;-1.330;2023-04-23T13:27:23;99007.78;;;13.39;93.66
48796;BME280;34607;48.520;-1.330;2023-04-23T13:29:50;99008.78;;;13.29;93.12
48796;BME280;34607;48.520;-1.330;2023-04-23T13:32:17;99020.13;;;13.23;94.36
48796;BME280;34607;48.520;-1.330;2023-04-23T13:34:44;99017.59;;;13.20;93.46
48796;BME280;34607;48.520;-1.330;2023-04-23T13:37:13;99018.78;;;12.99;93.19
48796;BME280;34607;48.520;-1.330;2023-04-23T13:39:40;99031.09;;;12.85;92.76
48796;BME280;34607;48.520;-1.330;2023-04-23T13:42:07;99027.03;;;12.67;92.26
48796;BME280;34607;48.520;-1.330;2023-04-23T13:44:34;99034.94;;;12.58;91.83
48796;BME280;34607;48.520;-1.330;2023-04-23T13:47:01;99043.75;;;12.46;91.90
48796;BME280;34607;48.520;-1.330;2023-04-23T13:49:28;99042.88;;;12.47;92.04
48796;BME280;34607;48.520;-1.330;2023-04-23T13:51:55;99037.88;;;12.30;93.61
48796;BME280;34607;48.520;-1.330;2023-04-23T13:54:26;99046.50;;;12.32;93.75
48796;BME280;34607;48.520;-1.330;2023-04-23T13:56:54;99041.44;;;12.20;94.49
48796;BME280;34607;48.520;-1.330;2023-04-23T13:59:22;99022.63;;;12.01;94.65
48796;BME280;34607;48.520;-1.330;2023-04-23T14:01:49;99040.88;;;11.90;94.32
48796;BME280;34607;48.520;-1.330;2023-04-23T14:04:17;99039.94;;;12.02;95.32
48796;BME280;34607;48.520;-1.330;2023-04-23T14:06:44;99039.63;;;12.28;94.97
48796;BME280;34607;48.520;-1.330;2023-04-23T14:09:11;99035.69;;;12.66;94.66
48796;BME280;34607;48.520;-1.330;2023-04-23T14:11:39;99037.53;;;13.20;92.54
48796;BME280;34607;48.520;-1.330;2023-04-23T14:14:07;99041.56;;;13.41;90.74
48796;BME280;34607;48.520;-1.330;2023-04-23T14:16:34;99042.38;;;13.43;90.03
48796;BME280;34607;48.520;-1.330;2023-04-23T14:19:01;99041.59;;;13.38;90.25
48796;BME280;34607;48.520;-1.330;2023-04-23T14:21:28;99036.44;;;13.35;90.29
48796;BME280;34607;48.520;-1.330;2023-04-23T14:23:55;99044.91;;;13.47;89.55
48796;BME280;34607;48.520;-1.330;2023-04-23T14:26:32;99053.22;;;13.14;87.97
48796;BME280;34607;48.520;-1.330;2023-04-23T14:29:08;99051.34;;;13.23;88.37
48796;BME280;34607;48.520;-1.330;2023-04-23T14:31:36;99053.81;;;13.84;88.09
48796;BME280;34607;48.520;-1.330;2023-04-23T14:34:03;99046.81;;;14.34;85.24
48796;BME280;34607;48.520;-1.330;2023-04-23T14:36:30;99050.81;;;14.49;84.49
48796;BME280;34607;48.520;-1.330;2023-04-23T14:38:57;99058.09;;;13.88;84.57
48796;BME280;34607;48.520;-1.330;2023-04-23T14:41:30;99053.84;;;13.82;85.72
48796;BME280;34607;48.520;-1.330;2023-04-23T14:43:58;99065.00;;;13.38;85.26
48796;BME280;34607;48.520;-1.330;2023-04-23T14:46:27;99041.44;;;12.89;86.55
48796;BME280;34607;48.520;-1.330;2023-04-23T14:48:54;99055.41;;;12.81;86.84
48796;BME280;34607;48.520;-1.330;2023-04-23T14:51:22;99069.47;;;12.64;87.35
48796;BME280;34607;48.520;-1.330;2023-04-23T14:53:50;99074.06;;;12.42;88.27
48796;BME280;34607;48.520;-1.330;2023-04-23T14:56:17;99077.06;;;12.07;88.49
48796;BME280;34607;48.520;-1.330;2023-04-23T14:58:44;99080.53;;;12.04;89.53
48796;BME280;34607;48.520;-1.330;2023-04-23T15:01:11;99086.53;;;12.12;90.21
48796;BME280;34607;48.520;-1.330;2023-04-23T15:03:39;99086.47;;;12.18;89.90
48796;BME280;34607;48.520;-1.330;2023-04-23T15:06:07;99089.16;;;12.08;90.05
48796;BME280;34607;48.520;-1.330;2023-04-23T15:08:34;99098.81;;;11.95;90.45
48796;BME280;34607;48.520;-1.330;2023-04-23T15:11:01;99100.56;;;11.93;90.28
48796;BME280;34607;48.520;-1.330;2023-04-23T15:13:35;99111.84;;;11.83;90.62
48796;BME280;34607;48.520;-1.330;2023-04-23T15:16:07;99112.66;;;11.91;90.35
48796;BME280;34607;48.520;-1.330;2023-04-23T15:18:35;99101.47;;;11.83;89.82
48796;BME280;34607;48.520;-1.330;2023-04-23T15:21:03;99113.56;;;11.84;90.29
48796;BME280;34607;48.520;-1.330;2023-04-23T15:23:30;99117.09;;;11.76;90.33
48796;BME280;34607;48.520;-1.330;2023-04-23T15:25:58;99126.53;;;11.84;90.54
48796;BME280;34607;48.520;-1.330;2023-04-23T15:28:25;99124.75;;;11.89;89.97
48796;BME280;34607;48.520;-1.330;2023-04-23T15:30:52;99120.38;;;12.00;89.99
48796;BME280;34607;48.520;-1.330;2023-04-23T15:33:19;99124.66;;;12.04;90.02
48796;BME280;34607;48.520;-1.330;2023-04-23T15:35:46;99126.34;;;12.08;89.63
48796;BME280;34607;48.520;-1.330;2023-04-23T15:38:17;99128.88;;;12.14;89.14
48796;BME280;34607;48.520;-1.330;2023-04-23T15:40:44;99132.25;;;12.26;89.22
48796;BME280;34607;48.520;-1.330;2023-04-23T15:43:11;99127.00;;;12.30;88.97
48796;BME280;34607;48.520;-1.330;2023-04-23T15:45:39;99128.50;;;12.50;88.70
48796;BME280;34607;48.520;-1.330;2023-04-23T15:48:07;99108.59;;;12.50;87.34
48796;BME280;34607;48.520;-1.330;2023-04-23T15:50:34;99129.22;;;12.63;86.69
48796;BME280;34607;48.520;-1.330;2023-04-23T15:53:01;99126.59;;;12.66;86.55
48796;BME280;34607;48.520;-1.330;2023-04-23T15:55:30;99131.78;;;12.67;85.92
48796;BME280;34607;48.520;-1.330;2023-04-23T15:57:58;99119.09;;;12.41;86.29
48796;BME280;34607;48.520;-1.330;2023-04-23T16:00:26;99136.50;;;12.30;86.69
48796;BME280;34607;48.520;-1.330;2023-04-23T16:02:53;99124.50;;;12.20;87.30
48796;BME280;34607;48.520;-1.330;2023-04-23T16:05:20;99144.13;;;12.45;87.03
48796;BME280;34607;48.520;-1.330;2023-04-23T16:07:48;99135.38;;;12.55;86.16
48796;BME280;34607;48.520;-1.330;2023-04-23T16:10:15;99108.63;;;12.47;86.46
48796;BME280;34607;48.520;-1.330;2023-04-23T16:12:43;99130.91;;;12.67;86.09
48796;BME280;34607;48.520;-1.330;2023-04-23T16:15:12;99123.72;;;12.90;86.61
48796;BME280;34607;48.520;-1.330;2023-04-23T16:17:39;99131.19;;;13.14;85.61
48796;BME280;34607;48.520;-1.330;2023-04-23T16:20:07;99136.13;;;13.34;85.07
48796;BME280;34607;48.520;-1.330;2023-04-23T16:22:34;99132.41;;;13.50;84.79
48796;BME280;34607;48.520;-1.330;2023-04-23T16:25:01;99140.16;;;13.55;83.71
48796;BME280;34607;48.520;-1.330;2023-04-23T16:27:28;99141.06;;;13.52;83.96
48796;BME280;34607;48.520;-1.330;2023-04-23T16:29:57;99143.59;;;13.55;84.42
48796;BME280;34607;48.520;-1.330;2023-04-23T16:32:24;99140.09;;;13.58;83.38
48796;BME280;34607;48.520;-1.330;2023-04-23T16:34:51;99108.38;;;13.34;82.88
48796;BME280;34607;48.520;-1.330;2023-04-23T16:37:18;99114.28;;;13.47;83.28
48796;BME280;34607;48.520;-1.330;2023-04-23T16:39:45;99145.38;;;13.53;82.35
48796;BME280;34607;48.520;-1.330;2023-04-23T16:42:12;99143.56;;;13.58;82.47
48796;BME280;34607;48.520;-1.330;2023-04-23T16:44:39;99148.91;;;13.49;82.47
48796;BME280;34607;48.520;-1.330;2023-04-23T16:47:07;99157.00;;;13.24;83.64
48796;BME280;34607;48.520;-1.330;2023-04-23T16:49:35;99154.66;;;13.07;84.44
48796;BME280;34607;48.520;-1.330;2023-04-23T16:52:01;99157.22;;;13.09;84.36
48796;BME280;34607;48.520;-1.330;2023-04-23T16:54:29;99156.28;;;13.16;83.91
48796;BME280;34607;48.520;-1.330;2023-04-23T16:56:56;99159.78;;;13.14;83.72
48796;BME280;34607;48.520;-1.330;2023-04-23T16:59:23;99148.41;;;13.19;83.74
48796;BME280;34607;48.520;-1.330;2023-04-23T17:01:51;99157.19;;;13.10;83.38
48796;BME280;34607;48.520;-1.330;2023-04-23T17:04:19;99152.09;;;13.06;83.43
48796;BME280;34607;48.520;-1.330;2023-04-23T17:06:47;99136.63;;;12.95;83.63
48796;BME280;34607;48.520;-1.330;2023-04-23T17:09:14;99140.97;;;12.95;83.95
48796;BME280;34607;48.520;-1.330;2023-04-23T17:11:41;99122.84;;;12.88;84.22
48796;BME280;34607;48.520;-1.330;2023-04-23T17:14:08;99150.41;;;12.99;84.74
48796;BME280;34607;48.520;-1.330;2023-04-23T17:16:36;99145.34;;;12.91;84.93
48796;BME280;34607;48.520;-1.330;2023-04-23T17:19:03;99149.72;;;12.87;85.50
48796;BME280;34607;48.520;-1.330;2023-04-23T17:21:32;99156.66;;;12.87;85.74
48796;BME280;34607;48.520;-1.330;2023-04-23T17:23:59;99156.69;;;12.85;86.22
48796;BME280;34607;48.520;-1.330;2023-04-23T17:26:26;99156.69;;;12.85;86.58
48796;BME280;34607;48.520;-1.330;2023-04-23T17:28:53;99173.16;;;12.83;87.19
48796;BME280;34607;48.520;-1.330;2023-04-23T17:31:21;99190.06;;;12.40;90.57
48796;BME280;34607;48.520;-1.330;2023-04-23T17:33:48;99188.50;;;12.24;92.30
48796;BME280;34607;48.520;-1.330;2023-04-23T17:36:15;99200.72;;;12.06;93.07
48796;BME280;34607;48.520;-1.330;2023-04-23T17:38:44;99212.94;;;11.90;94.80
48796;BME280;34607;48.520;-1.330;2023-04-23T17:41:11;99222.72;;;11.50;99.54
48796;BME280;34607;48.520;-1.330;2023-04-23T17:43:38;99224.53;;;11.32;98.89
48796;BME280;34607;48.520;-1.330;2023-04-23T17:46:05;99224.59;;;11.15;98.67
48796;BME280;34607;48.520;-1.330;2023-04-23T17:48:32;99215.19;;;10.99;96.61
48796;BME280;34607;48.520;-1.330;2023-04-23T17:50:59;99237.63;;;10.98;96.98
48796;BME280;34607;48.520;-1.330;2023-04-23T17:53:26;99242.88;;;10.80;97.62
48796;BME280;34607;48.520;-1.330;2023-04-23T17:55:55;99240.31;;;10.60;96.58
48796;BME280;34607;48.520;-1.330;2023-04-23T17:58:27;99248.09;;;10.66;96.30
48796;BME280;34607;48.520;-1.330;2023-04-23T18:00:54;99259.28;;;10.79;95.68
48796;BME280;34607;48.520;-1.330;2023-04-23T18:03:21;99261.84;;;10.79;94.72
48796;BME280;34607;48.520;-1.330;2023-04-23T18:05:49;99274.81;;;10.65;95.52
48796;BME280;34607;48.520;-1.330;2023-04-23T18:08:16;99271.38;;;10.40;97.62
48796;BME280;34607;48.520;-1.330;2023-04-23T18:10:44;99264.50;;;10.40;98.15
48796;BME280;34607;48.520;-1.330;2023-04-23T18:13:12;99274.84;;;10.34;99.12
48796;BME280;34607;48.520;-1.330;2023-04-23T18:15:40;99275.69;;;10.25;100.00
48796;BME280;34607;48.520;-1.330;2023-04-23T18:18:07;99267.94;;;10.33;99.53
48796;BME280;34607;48.520;-1.330;2023-04-23T18:20:34;99265.38;;;10.32;99.31
48796;BME280;34607;48.520;-1.330;2023-04-23T18:23:03;99238.59;;;10.08;99.65
48796;BME280;34607;48.520;-1.330;2023-04-23T18:25:31;99274.00;;;10.34;99.31
48796;BME280;34607;48.520;-1.330;2023-04-23T18:27:58;99266.19;;;10.26;98.95
48796;BME280;34607;48.520;-1.330;2023-04-23T18:30:26;99272.25;;;10.25;98.57
48796;BME280;34607;48.520;-1.330;2023-04-23T18:33:06;99275.69;;;10.10;99.24
48796;BME280;34607;48.520;-1.330;2023-04-23T18:35:34;99272.22;;;10.05;99.33
48796;BME280;34607;48.520;-1.330;2023-04-23T18:38:04;99300.69;;;10.08;99.25
48796;BME280;34607;48.520;-1.330;2023-04-23T18:40:32;99303.25;;;10.02;99.44
48796;BME280;34607;48.520;-1.330;2023-04-23T18:42:59;99301.53;;;10.10;99.06
48796;BME280;34607;48.520;-1.330;2023-04-23T18:45:28;99305.84;;;10.19;99.23
48796;BME280;34607;48.520;-1.330;2023-04-23T18:47:56;99310.19;;;10.17;99.69
48796;BME280;34607;48.520;-1.330;2023-04-23T18:50:34;99317.94;;;10.23;99.34
48796;BME280;34607;48.520;-1.330;2023-04-23T18:53:02;99320.53;;;10.21;99.71
48796;BME280;34607;48.520;-1.330;2023-04-23T18:55:29;99312.75;;;10.13;99.65
48796;BME280;34607;48.520;-1.330;2023-04-23T18:57:56;99318.81;;;10.11;100.00
48796;BME280;34607;48.520;-1.330;2023-04-23T19:00:24;99318.78;;;10.05;99.59
48796;BME280;34607;48.520;-1.330;2023-04-23T19:02:52;99342.94;;;10.18;99.52
48796;BME280;34607;48.520;-1.330;2023-04-23T19:05:19;99341.22;;;10.20;98.96
48796;BME280;34607;48.520;-1.330;2023-04-23T19:07:46;99342.09;;;10.23;98.96
48796;BME280;34607;48.520;-1.330;2023-04-23T19:10:14;99323.09;;;10.04;98.51
48796;BME280;34607;48.520;-1.330;2023-04-23T19:12:42;99347.28;;;10.25;98.71
48796;BME280;34607;48.520;-1.330;2023-04-23T19:15:09;99329.16;;;10.19;98.07
48796;BME280;34607;48.520;-1.330;2023-04-23T19:17:38;99348.09;;;10.11;98.17
48796;BME280;34607;48.520;-1.330;2023-04-23T19:20:08;99351.56;;;10.12;98.34
48796;BME280;34607;48.520;-1.330;2023-04-23T19:22:37;99357.59;;;10.14;97.96
48796;BME280;34607;48.520;-1.330;2023-04-23T19:25:07;99367.09;;;10.21;97.83
48796;BME280;34607;48.520;-1.330;2023-04-23T19:27:34;99370.53;;;10.22;97.49
48796;BME280;34607;48.520;-1.330;2023-04-23T19:30:01;99343.75;;;9.93;97.88
48796;BME280;34607;48.520;-1.330;2023-04-23T19:32:30;99358.41;;;10.02;98.04
48796;BME280;34607;48.520;-1.330;2023-04-23T19:34:58;99379.09;;;9.94;98.22
48796;BME280;34607;48.520;-1.330;2023-04-23T19:37:27;99382.53;;;9.87;98.64
48796;BME280;34607;48.520;-1.330;2023-04-23T19:39:54;99385.09;;;9.86;98.98
48796;BME280;34607;48.520;-1.330;2023-04-23T19:42:21;99380.78;;;9.80;98.76
48796;BME280;34607;48.520;-1.330;2023-04-23T19:44:48;99392.81;;;9.77;99.01
48796;BME280;34607;48.520;-1.330;2023-04-23T19:47:15;99406.69;;;9.97;98.55
48796;BME280;34607;48.520;-1.330;2023-04-23T19:49:43;99401.53;;;10.00;98.17
48796;BME280;34607;48.520;-1.330;2023-04-23T19:52:12;99400.69;;;10.01;98.20
48796;BME280;34607;48.520;-1.330;2023-04-23T19:54:44;99410.16;;;10.01;98.12
48796;BME280;34607;48.520;-1.330;2023-04-23T19:57:13;99420.50;;;9.96;98.63
48796;BME280;34607;48.520;-1.330;2023-04-23T19:59:40;99417.91;;;9.98;98.30
48796;BME280;34607;48.520;-1.330;2023-04-23T20:02:07;99428.28;;;10.07;97.99
48796;BME280;34607;48.520;-1.330;2023-04-23T20:04:34;99430.88;;;10.10;97.68
48796;BME280;34607;48.520;-1.330;2023-04-23T20:07:01;99426.56;;;10.13;97.32
48796;BME280;34607;48.520;-1.330;2023-04-23T20:09:29;99418.75;;;9.95;97.06
48796;BME280;34607;48.520;-1.330;2023-04-23T20:11:57;99436.91;;;10.03;97.20
48796;BME280;34607;48.520;-1.330;2023-04-23T20:14:26;99445.47;;;9.97;97.73
48796;BME280;34607;48.520;-1.330;2023-04-23T20:16:53;99447.22;;;10.01;97.54
48796;BME280;34607;48.520;-1.330;2023-04-23T20:19:20;99453.28;;;10.05;97.60
48796;BME280;34607;48.520;-1.330;2023-04-23T20:21:50;99450.69;;;10.03;97.39
48796;BME280;34607;48.520;-1.330;2023-04-23T20:24:18;99449.88;;;10.15;97.32
48796;BME280;34607;48.520;-1.330;2023-04-23T20:26:46;99460.22;;;10.15;96.88
48796;BME280;34607;48.520;-1.330;2023-04-23T20:29:14;99455.81;;;9.99;96.83
48796;BME280;34607;48.520;-1.330;2023-04-23T20:31:41;99466.19;;;10.02;96.63
48796;BME280;34607;48.520;-1.330;2023-04-23T20:34:13;99468.75;;;9.94;96.81
48796;BME280;34607;48.520;-1.330;2023-04-23T20:36:40;99469.59;;;9.85;97.21
48796;BME280;34607;48.520;-1.330;2023-04-23T20:39:08;99469.59;;;9.91;97.11
48796;BME280;34607;48.520;-1.330;2023-04-23T20:41:35;99467.00;;;9.91;96.42
48796;BME280;34607;48.520;-1.330;2023-04-23T20:44:03;99464.44;;;9.94;96.33
48796;BME280;34607;48.520;-1.330;2023-04-23T20:46:32;99473.94;;;9.96;96.02
48796;BME280;34607;48.520;-1.330;2023-04-23T20:49:01;99473.91;;;9.92;96.45
48796;BME280;34607;48.520;-1.330;2023-04-23T20:51:30;99486.84;;;9.97;95.92